createdAt,value
2022-09-06T00:03:40.841Z,5.20
2022-09-06T00:08:47.058Z,4.70
2022-09-06T00:13:50.573Z,4.20
2022-09-06T00:18:55.066Z,4.70
2022-09-06T00:24:00.658Z,4.47
2022-09-06T00:29:07.350Z,4.70
2022-09-06T00:34:12.398Z,4.40
2022-09-06T00:39:17.430Z,4.40
2022-09-06T00:44:22.122Z,4.20
2022-09-06T00:49:30.840Z,4.88
2022-09-06T00:54:36.940Z,4.35
2022-09-06T00:59:43.904Z,4.28
2022-09-06T01:04:51.496Z,4.18
2022-09-06T01:10:08.730Z,4.50
2022-09-06T01:15:23.459Z,4.88
2022-09-06T01:20:54.349Z,5.13
2022-09-06T01:26:14.683Z,5.00
2022-09-06T01:31:26.902Z,4.95
2022-09-06T01:36:49.648Z,5.30
2022-09-06T01:42:08.473Z,4.53
2022-09-06T01:47:24.089Z,5.03
2022-09-06T01:52:36.008Z,4.78
2022-09-06T01:58:06.425Z,4.80
2022-09-06T02:03:21.241Z,4.90
2022-09-06T02:08:30.953Z,4.47
2022-09-06T02:13:40.542Z,4.80
2022-09-06T02:18:53.771Z,5.40
2022-09-06T02:24:06.221Z,4.93
2022-09-06T02:29:13.917Z,4.78
2022-09-06T02:34:21.844Z,4.45
2022-09-06T02:39:25.652Z,4.88
2022-09-06T02:44:33.013Z,4.78
2022-09-06T02:49:38.151Z,4.65
2022-09-06T02:54:42.146Z,5.22
2022-09-06T02:59:46.288Z,4.65
2022-09-06T03:04:51.076Z,5.07
2022-09-06T03:09:56.951Z,4.68
2022-09-06T03:15:00.030Z,5.03
2022-09-06T03:20:08.492Z,4.95
2022-09-06T03:25:12.158Z,4.82
2022-09-06T03:30:15.561Z,5.32
2022-09-06T03:35:20.440Z,4.80
2022-09-06T03:40:25.021Z,5.10
2022-09-06T03:45:30.818Z,5.10
2022-09-06T03:50:35.910Z,4.93
2022-09-06T03:55:44.738Z,5.15
2022-09-06T04:00:50.137Z,4.82
2022-09-06T04:05:55.337Z,5.00
2022-09-06T04:11:00.308Z,5.07
2022-09-06T04:16:04.842Z,4.93
2022-09-06T04:21:09.896Z,5.07
2022-09-06T04:26:17.082Z,5.35
2022-09-06T04:31:24.366Z,5.38
2022-09-06T04:36:32.356Z,5.70
2022-09-06T04:41:38.001Z,5.15
2022-09-06T04:46:43.972Z,4.63
2022-09-06T04:51:55.883Z,5.53
2022-09-06T04:56:59.383Z,4.95
2022-09-06T05:02:03.391Z,5.35
2022-09-06T05:07:09.813Z,4.80
2022-09-06T05:12:13.507Z,4.90
2022-09-06T05:17:17.163Z,4.82
2022-09-06T05:22:24.154Z,4.90
2022-09-06T05:27:27.466Z,4.80
2022-09-06T05:32:30.891Z,5.63
2022-09-06T05:37:35.492Z,5.20
2022-09-06T05:42:41.158Z,5.57
2022-09-06T05:47:44.687Z,5.50
2022-09-06T05:52:49.420Z,4.90
2022-09-06T05:57:52.874Z,4.70
2022-09-06T06:02:56.271Z,5.07
2022-09-06T06:08:01.425Z,4.97
2022-09-06T06:13:04.931Z,4.88
2022-09-06T06:18:08.463Z,5.45
2022-09-06T06:23:16.062Z,4.72
2022-09-06T06:28:22.212Z,5.40
2022-09-06T06:33:25.684Z,4.82
2022-09-06T06:38:34.998Z,4.85
2022-09-06T06:43:38.941Z,5.10
2022-09-06T06:48:44.587Z,5.43
2022-09-06T06:53:50.560Z,4.90
2022-09-06T06:58:55.927Z,5.45
2022-09-06T07:04:00.115Z,4.55
2022-09-06T07:09:05.865Z,4.95
2022-09-06T07:14:08.997Z,5.22
2022-09-06T07:24:38.112Z,6.38
2022-09-06T07:29:41.096Z,5.32
2022-09-06T07:34:44.927Z,5.55
2022-09-06T07:39:49.450Z,5.05
2022-09-06T07:44:52.703Z,5.07
2022-09-06T07:55:20.231Z,5.13
2022-09-06T08:00:23.314Z,5.03
2022-09-06T08:10:52.757Z,5.70
2022-09-06T08:15:59.968Z,5.68
2022-09-06T08:21:15.668Z,4.72
2022-09-06T08:26:22.545Z,5.00
2022-09-06T08:31:26.309Z,5.68
2022-09-06T08:36:31.039Z,5.35
2022-09-06T08:41:47.940Z,5.35
2022-09-06T08:46:59.380Z,5.28
2022-09-06T08:52:49.735Z,4.95
2022-09-06T08:58:17.574Z,12.30
2022-09-06T09:03:28.129Z,6.65
2022-09-06T09:08:39.869Z,4.93
2022-09-06T09:13:55.616Z,5.97
2022-09-06T09:19:03.495Z,5.85
2022-09-06T09:24:11.190Z,5.70
2022-09-06T09:29:18.598Z,6.20
2022-09-06T09:34:34.288Z,6.00
2022-09-06T09:39:42.538Z,5.82
2022-09-06T09:44:49.619Z,5.63
2022-09-06T09:49:54.289Z,5.68
2022-09-06T09:55:02.799Z,5.47
2022-09-06T10:00:13.468Z,4.75
2022-09-06T10:05:22.150Z,5.47
2022-09-06T10:10:38.365Z,4.75
2022-09-06T10:15:44.921Z,4.63
2022-09-06T10:20:55.288Z,5.20
2022-09-06T10:26:13.854Z,4.18
2022-09-06T10:32:11.988Z,4.47
2022-09-06T10:37:30.521Z,4.25
2022-09-06T10:42:42.242Z,4.00
2022-09-06T10:48:02.439Z,4.25
2022-09-06T10:53:13.015Z,3.58
2022-09-06T10:58:25.602Z,3.78
2022-09-06T11:09:07.413Z,3.50
2022-09-06T11:14:18.610Z,3.58
2022-09-06T11:19:29.602Z,4.10
2022-09-06T11:24:51.971Z,3.63
2022-09-06T11:29:59.150Z,4.05
2022-09-06T11:35:10.520Z,3.63
2022-09-06T11:40:27.400Z,3.72
2022-09-06T11:45:43.617Z,3.90
2022-09-06T11:51:07.801Z,4.22
2022-09-06T11:56:19.279Z,4.03
2022-09-06T12:01:41.022Z,4.10
2022-09-06T12:07:10.290Z,3.97
2022-09-06T12:12:34.647Z,3.75
2022-09-06T12:23:44.864Z,4.00
2022-09-06T12:28:53.006Z,3.65
2022-09-06T12:34:00.740Z,3.42
2022-09-06T12:39:12.365Z,3.00
2022-09-06T12:44:19.993Z,2.80
2022-09-06T12:49:25.070Z,2.28
2022-09-06T12:54:32.777Z,2.40
2022-09-06T12:59:41.269Z,1.83
2022-09-06T13:04:51.975Z,1.60
2022-09-06T13:09:59.507Z,1.10
2022-09-06T13:15:12.115Z,1.40
2022-09-06T13:20:24.666Z,1.13
2022-09-06T13:25:31.798Z,0.90
2022-09-06T13:30:39.789Z,1.88
2022-09-06T13:35:44.068Z,1.38
2022-09-06T13:41:11.845Z,1.80
2022-09-06T13:46:17.004Z,2.20
2022-09-06T13:51:20.561Z,2.33
2022-09-06T13:56:25.468Z,1.70
2022-09-06T14:01:30.330Z,1.92
2022-09-06T14:06:37.030Z,2.20
2022-09-06T14:11:47.488Z,2.38
2022-09-06T14:16:54.279Z,2.60
2022-09-06T14:22:01.132Z,2.40
2022-09-06T14:27:07.425Z,3.05
2022-09-06T14:32:13.076Z,3.53
2022-09-06T14:37:17.745Z,3.53
2022-09-06T14:42:26.406Z,4.38
2022-09-06T14:47:32.190Z,3.90
2022-09-06T14:52:36.713Z,3.75
2022-09-06T14:57:46.783Z,4.63
2022-09-06T15:02:51.235Z,3.90
2022-09-06T15:07:55.532Z,3.58
2022-09-06T15:13:00.484Z,3.50
2022-09-06T15:18:06.847Z,3.80
2022-09-06T15:23:27.072Z,3.35
2022-09-06T15:28:34.669Z,3.35
2022-09-06T15:33:41.628Z,3.50
2022-09-06T15:38:49.300Z,3.67
2022-09-06T15:44:00.284Z,4.50
2022-09-06T15:49:08.357Z,3.53
2022-09-06T15:54:13.650Z,3.20
2022-09-06T15:59:23.818Z,3.53
2022-09-06T16:04:31.646Z,3.28
2022-09-06T16:09:39.976Z,3.10
2022-09-06T16:14:46.555Z,6.30
2022-09-06T16:19:51.198Z,3.30
2022-09-06T16:24:58.280Z,3.30
2022-09-06T16:30:05.354Z,3.50
2022-09-06T16:35:12.099Z,3.05
2022-09-06T16:40:17.563Z,3.83
2022-09-06T16:45:26.440Z,3.47
2022-09-06T16:50:33.362Z,3.58
2022-09-06T16:55:40.728Z,3.33
2022-09-06T17:00:47.104Z,3.25
2022-09-06T17:05:52.884Z,3.00
2022-09-06T17:10:59.853Z,2.90
2022-09-06T17:16:25.066Z,2.90
2022-09-06T17:21:29.959Z,2.97
2022-09-06T17:26:40.320Z,3.10
2022-09-06T17:31:49.062Z,3.28
2022-09-06T17:36:55.119Z,3.15
2022-09-06T17:42:02.439Z,3.35
2022-09-06T17:47:14.042Z,3.00
2022-09-06T17:52:18.929Z,3.10
2022-09-06T17:57:26.743Z,3.38
2022-09-06T18:02:31.900Z,3.45
2022-09-06T18:07:36.937Z,3.72
2022-09-06T18:12:41.334Z,3.47
2022-09-06T18:17:49.047Z,3.58
2022-09-06T18:22:55.402Z,3.80
2022-09-06T18:28:00.397Z,3.40
2022-09-06T18:33:08.404Z,3.58
2022-09-06T18:38:13.351Z,3.78
2022-09-06T18:43:19.633Z,4.30
2022-09-06T18:48:25.731Z,3.70
2022-09-06T18:53:33.429Z,4.13
2022-09-06T18:58:37.475Z,4.35
2022-09-06T19:03:43.038Z,4.05
2022-09-06T19:08:48.098Z,4.68
2022-09-06T19:13:56.151Z,4.13
2022-09-06T19:19:07.322Z,4.03
2022-09-06T19:24:14.830Z,3.63
2022-09-06T19:29:19.279Z,2.88
2022-09-06T19:34:25.804Z,2.42
2022-09-06T19:39:36.237Z,2.40
2022-09-06T19:44:40.542Z,2.50
2022-09-06T19:49:45.418Z,2.10
2022-09-06T19:54:49.406Z,2.42
2022-09-06T19:59:56.588Z,2.45
2022-09-06T20:05:05.355Z,2.90
2022-09-06T20:10:15.525Z,3.03
2022-09-06T20:15:19.296Z,3.20
2022-09-06T20:20:25.531Z,3.60
2022-09-06T20:25:29.125Z,3.70
2022-09-06T20:30:34.916Z,3.53
2022-09-06T20:35:39.664Z,4.20
2022-09-06T20:40:45.334Z,4.78
2022-09-06T20:45:50.601Z,4.75
2022-09-06T20:51:07.513Z,4.82
2022-09-06T20:56:12.563Z,5.72
2022-09-06T21:01:22.895Z,6.50
2022-09-06T21:06:30.426Z,7.22
2022-09-06T21:11:35.686Z,7.07
2022-09-06T21:16:43.965Z,7.93
2022-09-06T21:21:50.552Z,8.50
2022-09-06T21:26:56.597Z,8.60
2022-09-06T21:32:01.632Z,9.25
2022-09-06T21:37:08.376Z,9.60
2022-09-06T21:42:14.521Z,8.73
2022-09-06T21:47:19.306Z,9.70
2022-09-06T21:52:24.432Z,10.15
2022-09-06T21:57:28.677Z,11.38
2022-09-06T22:02:32.433Z,11.38
2022-09-06T22:07:39.960Z,11.63
2022-09-06T22:12:44.864Z,12.13
2022-09-06T22:18:03.723Z,12.93
2022-09-06T22:23:19.108Z,13.18
2022-09-06T22:28:24.620Z,14.35
2022-09-06T22:33:31.324Z,13.95
2022-09-06T22:38:35.945Z,15.77
2022-09-06T22:43:39.425Z,16.70
2022-09-06T22:48:42.980Z,16.40
2022-09-06T22:53:50.755Z,16.02
2022-09-06T22:58:58.158Z,16.88
2022-09-06T23:04:04.348Z,17.73
2022-09-06T23:09:09.905Z,17.98
2022-09-06T23:14:14.768Z,17.80
2022-09-06T23:19:18.986Z,18.35
2022-09-06T23:24:28.776Z,19.40
2022-09-06T23:29:32.691Z,17.20
2022-09-06T23:34:39.185Z,18.92
2022-09-06T23:39:46.013Z,19.55
2022-09-06T23:45:00.978Z,19.20
2022-09-06T23:50:07.947Z,20.60
2022-09-06T23:55:15.154Z,20.92
